Time;durP1;ratioP1;P1;durP2;ratioP2;P2;SDS_P1;SDS_P2;PMS_P1;PMS_P2;Temp;Humidity;BMP_temperature;BMP_pressure;BME280_temperature;BME280_humidity;BME280_pressure;Samples;Min_cycle;Max_cycle;Signal;HPM_P1;HPM_P2
2022/06/17 00:01:24;;;;;;;15.02;6.47;;;19.40;99.90;;;;;;5033045;28;20025;-64
2022/06/17 00:03:53;;;;;;;14.57;6.25;;;19.40;99.90;;;;;;5031476;28;20466;-65
2022/06/17 00:06:21;;;;;;;13.88;6.03;;;19.40;99.90;;;;;;5064235;28;20163;-67
2022/06/17 00:08:49;;;;;;;13.85;6.45;;;19.30;99.90;;;;;;5032446;28;20022;-65
2022/06/17 00:11:20;;;;;;;15.07;6.50;;;19.30;99.90;;;;;;5032419;28;20036;-65
2022/06/17 00:13:45;;;;;;;12.95;6.63;;;19.20;99.90;;;;;;5031073;28;20540;-63
2022/06/17 00:16:13;;;;;;;11.68;5.95;;;19.20;99.90;;;;;;5031167;28;20033;-64
2022/06/17 00:18:40;;;;;;;15.25;6.90;;;19.10;99.90;;;;;;5032138;28;20423;-66
2022/06/17 00:21:06;;;;;;;15.73;6.75;;;19.10;99.90;;;;;;5046243;28;20021;-64
2022/06/17 00:23:31;;;;;;;15.77;7.22;;;19.00;99.90;;;;;;5052282;28;20036;-64
2022/06/17 00:25:57;;;;;;;15.18;7.32;;;19.00;99.90;;;;;;5050854;28;20442;-68
2022/06/17 00:28:23;;;;;;;20.70;8.52;;;18.90;99.90;;;;;;5052428;28;20103;-65
2022/06/17 00:30:50;;;;;;;16.42;7.35;;;18.90;99.90;;;;;;5052167;28;20037;-63
2022/06/17 00:33:18;;;;;;;16.27;7.25;;;18.80;99.90;;;;;;5052283;28;20485;-66
2022/06/17 00:35:47;;;;;;;14.85;7.20;;;18.80;99.90;;;;;;5052192;28;20021;-66
2022/06/17 00:38:15;;;;;;;15.15;7.60;;;18.80;99.90;;;;;;5051882;28;20028;-66
2022/06/17 00:40:42;;;;;;;15.57;6.57;;;18.70;99.90;;;;;;5052513;28;20032;-64
2022/06/17 00:43:33;;;;;;;14.45;7.30;;;18.60;99.90;;;;;;5052185;28;20513;-64
2022/06/17 00:46:36;;;;;;;13.98;6.82;;;18.70;99.90;;;;;;5054797;28;20037;-64
2022/06/17 00:49:32;;;;;;;16.55;6.75;;;18.60;99.90;;;;;;5055980;28;20031;-64
2022/06/17 00:52:05;;;;;;;13.18;6.50;;;18.50;99.90;;;;;;5055774;28;20040;-65
2022/06/17 00:55:32;;;;;;;14.38;6.60;;;18.50;99.90;;;;;;5054632;28;20029;-63
2022/06/17 00:58:04;;;;;;;12.07;5.82;;;18.40;99.90;;;;;;4993715;28;20455;-68
2022/06/17 01:00:32;;;;;;;14.30;6.60;;;18.40;99.90;;;;;;5040661;28;20066;-69
2022/06/17 01:03:03;;;;;;;12.60;6.30;;;18.30;99.90;;;;;;5055544;28;20519;-64
2022/06/17 01:05:40;;;;;;;11.73;6.57;;;18.20;99.90;;;;;;5055670;28;20017;-65
2022/06/17 01:09:56;;;;;;;13.68;6.60;;;18.20;99.90;;;;;;5054229;28;20370;-63
2022/06/17 01:11:02;;;;;;;11.65;6.68;;;18.20;99.90;;;;;;5055045;28;20021;-65
2022/06/17 01:13:28;;;;;;;13.48;6.32;;;18.20;99.90;;;;;;5055746;28;20028;-68
2022/06/17 01:15:53;;;;;;;13.90;6.95;;;18.10;99.90;;;;;;5055445;28;20421;-65
2022/06/17 01:18:19;;;;;;;16.27;7.28;;;18.10;99.90;;;;;;5055681;28;20455;-64
2022/06/17 01:20:47;;;;;;;13.02;6.90;;;18.10;99.90;;;;;;5055007;28;20036;-63
2022/06/17 01:23:14;;;;;;;13.32;7.32;;;18.10;99.90;;;;;;5053634;28;20485;-64
2022/06/17 01:25:43;;;;;;;16.52;6.65;;;18.00;99.90;;;;;;5053744;28;20486;-66
2022/06/17 01:28:13;;;;;;;12.15;7.32;;;18.00;99.90;;;;;;5054902;28;20029;-66
2022/06/17 01:30:40;;;;;;;16.65;7.30;;;18.00;99.90;;;;;;5054774;28;20037;-63
2022/06/17 01:33:23;;;;;;;13.55;7.18;;;17.90;99.90;;;;;;5055449;28;20465;-64
2022/06/17 01:35:54;;;;;;;11.93;7.18;;;17.90;99.90;;;;;;5054712;28;20044;-64
2022/06/17 01:38:22;;;;;;;14.57;7.43;;;17.90;99.90;;;;;;5055126;28;20033;-63
2022/06/17 01:40:49;;;;;;;15.20;7.68;;;17.90;99.90;;;;;;5054885;28;20025;-66
2022/06/17 01:43:17;;;;;;;15.02;7.55;;;17.90;99.90;;;;;;5054528;28;20036;-65
2022/06/17 01:45:52;;;;;;;17.13;8.52;;;17.90;99.90;;;;;;5054429;28;20017;-62
2022/06/17 01:48:19;;;;;;;15.48;7.70;;;17.80;99.90;;;;;;5054615;28;20139;-64
2022/06/17 01:50:46;;;;;;;17.65;8.63;;;17.90;99.90;;;;;;5054438;28;20020;-63
2022/06/17 01:53:16;;;;;;;17.75;7.82;;;17.80;99.90;;;;;;5054763;28;20362;-67
2022/06/17 01:55:47;;;;;;;16.75;8.07;;;17.80;99.90;;;;;;5053598;28;20442;-64
2022/06/17 01:58:39;;;;;;;14.30;7.63;;;17.80;99.90;;;;;;5053427;28;20061;-63
2022/06/17 02:01:07;;;;;;;13.60;8.13;;;17.80;99.90;;;;;;5054600;28;20031;-63
2022/06/17 02:03:37;;;;;;;13.35;7.03;;;17.80;99.90;;;;;;5054320;28;20071;-65
2022/06/17 02:06:11;;;;;;;15.77;7.95;;;17.80;99.90;;;;;;5054237;28;20043;-63
2022/06/17 02:08:37;;;;;;;12.50;6.85;;;17.70;99.90;;;;;;5054762;28;20021;-64
2022/06/17 02:11:05;;;;;;;17.30;8.07;;;17.70;99.90;;;;;;5047386;28;20029;-63
2022/06/17 02:13:32;;;;;;;14.65;8.00;;;17.70;99.90;;;;;;5054311;28;20044;-64
2022/06/17 02:16:03;;;;;;;13.80;7.63;;;17.60;99.90;;;;;;5052886;28;20406;-66
2022/06/17 02:18:30;;;;;;;16.97;7.90;;;17.60;99.90;;;;;;5053856;28;20025;-64
2022/06/17 02:20:59;;;;;;;14.70;7.30;;;17.60;99.90;;;;;;5052806;28;20043;-66
2022/06/17 02:23:27;;;;;;;16.17;7.80;;;17.60;99.90;;;;;;5053089;28;20025;-63
2022/06/17 02:25:54;;;;;;;16.30;7.40;;;17.60;99.90;;;;;;5053132;28;20112;-64
2022/06/17 02:28:22;;;;;;;15.38;8.02;;;17.60;99.90;;;;;;5048735;28;20024;-65
2022/06/17 02:30:49;;;;;;;14.15;7.55;;;17.50;99.90;;;;;;5052487;28;20386;-65
2022/06/17 02:33:15;;;;;;;16.15;8.75;;;17.50;99.90;;;;;;5053805;28;20044;-63
2022/06/17 02:36:14;;;;;;;19.20;8.48;;;17.50;99.90;;;;;;5053503;28;20474;-64
2022/06/17 02:38:40;;;;;;;13.13;7.45;;;17.50;99.90;;;;;;5053851;28;20061;-64
2022/06/17 02:41:12;;;;;;;13.43;8.25;;;17.40;99.90;;;;;;5053709;28;20075;-66
2022/06/17 02:43:45;;;;;;;14.25;7.97;;;17.40;99.90;;;;;;5053505;28;20021;-64
2022/06/17 02:46:17;;;;;;;17.30;8.02;;;17.40;99.90;;;;;;5053032;28;20108;-63
2022/06/17 02:48:51;;;;;;;15.18;7.97;;;17.40;99.90;;;;;;5053201;28;20047;-63
2022/06/17 02:51:17;;;;;;;17.08;8.25;;;17.40;99.90;;;;;;5053613;28;20447;-64
2022/06/17 02:53:43;;;;;;;15.20;8.05;;;17.50;99.90;;;;;;5052056;28;20025;-63
2022/06/17 02:56:22;;;;;;;14.63;8.20;;;17.50;99.90;;;;;;5053297;28;20036;-64
2022/06/17 02:59:03;;;;;;;14.80;7.65;;;17.50;99.90;;;;;;5053310;28;20021;-66
2022/06/17 03:01:32;;;;;;;15.32;7.68;;;17.60;99.90;;;;;;5053136;28;20017;-64
2022/06/17 03:03:59;;;;;;;13.25;7.50;;;17.60;99.90;;;;;;5052809;28;20514;-64
2022/06/17 03:06:39;;;;;;;14.00;7.68;;;17.60;99.90;;;;;;5053188;28;20025;-66
2022/06/17 03:09:16;;;;;;;15.50;7.55;;;17.60;99.90;;;;;;5052067;28;20040;-67
2022/06/17 03:11:43;;;;;;;17.00;8.05;;;17.70;99.90;;;;;;5053823;28;20031;-64
2022/06/17 03:14:12;;;;;;;16.08;7.88;;;17.70;99.90;;;;;;5054853;28;20043;-66
2022/06/17 03:16:39;;;;;;;15.25;8.02;;;17.80;99.90;;;;;;5052866;28;20027;-65
2022/06/17 03:19:05;;;;;;;14.80;8.07;;;17.90;99.90;;;;;;5053090;28;20028;-64
2022/06/17 03:21:32;;;;;;;15.27;8.30;;;18.00;99.90;;;;;;5051715;28;20103;-65
2022/06/17 03:24:05;;;;;;;14.48;7.55;;;18.00;99.90;;;;;;5051776;28;20017;-65
2022/06/17 03:26:44;;;;;;;13.32;7.75;;;18.10;99.90;;;;;;5053280;28;20079;-66
2022/06/17 03:29:11;;;;;;;14.98;7.85;;;18.10;99.90;;;;;;5053271;28;20049;-63
2022/06/17 03:31:45;;;;;;;15.52;8.02;;;18.20;99.90;;;;;;5052293;28;20497;-68
2022/06/17 03:34:17;;;;;;;13.00;7.88;;;18.30;99.90;;;;;;5053489;28;20021;-65
2022/06/17 03:37:10;;;;;;;17.73;8.07;;;18.30;99.90;;;;;;5052756;28;20021;-66
2022/06/17 03:39:40;;;;;;;17.13;7.90;;;18.40;99.90;;;;;;5052821;28;20051;-65
2022/06/17 03:42:08;;;;;;;13.80;8.68;;;18.40;99.90;;;;;;5051486;28;20021;-67
2022/06/17 03:44:39;;;;;;;14.68;7.78;;;18.40;99.90;;;;;;5052681;28;20052;-64
2022/06/17 03:47:19;;;;;;;15.30;7.83;;;18.40;99.90;;;;;;5052415;28;20074;-68
2022/06/17 03:49:53;;;;;;;12.80;7.35;;;18.50;99.90;;;;;;5052438;28;20047;-66
2022/06/17 03:52:27;;;;;;;13.15;7.07;;;18.50;99.90;;;;;;5052984;28;20405;-66
2022/06/17 03:54:53;;;;;;;13.00;6.45;;;18.60;99.90;;;;;;5051833;28;20438;-64
2022/06/17 03:57:19;;;;;;;12.65;7.07;;;18.60;99.90;;;;;;5052695;28;20025;-63
2022/06/17 03:59:49;;;;;;;12.27;7.32;;;18.60;99.90;;;;;;5052228;28;20079;-63
2022/06/17 04:02:17;;;;;;;13.27;6.95;;;18.60;99.90;;;;;;5052379;28;20112;-63
2022/06/17 04:04:48;;;;;;;13.38;6.30;;;18.70;99.90;;;;;;5051967;28;20040;-64
2022/06/17 04:07:13;;;;;;;13.15;6.53;;;18.70;99.90;;;;;;5052610;28;20045;-64
2022/06/17 04:09:43;;;;;;;11.20;6.00;;;18.70;99.90;;;;;;5051031;28;20079;-67
2022/06/17 04:12:11;;;;;;;14.55;6.88;;;18.80;99.90;;;;;;5052648;28;20365;-63
2022/06/17 04:14:46;;;;;;;14.05;7.22;;;18.90;99.90;;;;;;5051103;28;20107;-66
2022/06/17 04:17:29;;;;;;;10.20;5.63;;;18.90;99.90;;;;;;5052236;28;20500;-67
2022/06/17 04:20:22;;;;;;;11.77;6.10;;;18.90;99.90;;;;;;5053807;28;20367;-63
2022/06/17 04:22:51;;;;;;;14.23;6.80;;;19.00;99.90;;;;;;5056388;28;20458;-64
2022/06/17 04:25:48;;;;;;;11.13;5.70;;;19.10;99.90;;;;;;5056126;28;20032;-64
2022/06/17 04:28:19;;;;;;;11.35;6.55;;;19.10;99.90;;;;;;5056482;28;20450;-67
2022/06/17 04:30:56;;;;;;;14.60;6.70;;;19.20;99.90;;;;;;5055773;28;20037;-64
2022/06/17 04:33:29;;;;;;;12.93;6.38;;;19.20;99.90;;;;;;5056056;28;20104;-63
2022/06/17 04:36:23;;;;;;;12.30;6.10;;;19.30;99.90;;;;;;5056437;28;20025;-63
2022/06/17 04:38:56;;;;;;;14.80;6.50;;;19.40;99.90;;;;;;5055906;28;20031;-64
2022/06/17 04:41:26;;;;;;;13.65;6.35;;;19.50;99.90;;;;;;5055771;28;20477;-69
2022/06/17 04:43:56;;;;;;;11.15;5.90;;;19.60;99.90;;;;;;5055589;28;20449;-63
2022/06/17 04:46:38;;;;;;;11.43;6.03;;;19.70;99.90;;;;;;5055853;28;20056;-64
2022/06/17 04:49:05;;;;;;;13.20;6.10;;;19.80;99.90;;;;;;5055936;28;20082;-64
2022/06/17 04:51:32;;;;;;;13.45;6.35;;;19.90;99.90;;;;;;5056151;28;20021;-63
2022/06/17 04:53:59;;;;;;;13.68;6.03;;;20.00;99.90;;;;;;5055484;28;20362;-65
2022/06/17 04:56:31;;;;;;;12.65;6.65;;;20.00;99.90;;;;;;5055834;28;20152;-65
2022/06/17 04:58:57;;;;;;;9.85;5.88;;;20.10;99.90;;;;;;5054648;28;20120;-64
2022/06/17 05:01:24;;;;;;;12.27;6.00;;;20.10;99.90;;;;;;5056112;28;20060;-64
2022/06/17 05:03:52;;;;;;;11.18;6.55;;;20.10;99.90;;;;;;5055575;28;20367;-64
2022/06/17 05:06:17;;;;;;;13.10;6.20;;;20.20;99.90;;;;;;5055584;28;20106;-64
2022/06/17 05:08:53;;;;;;;11.13;5.90;;;20.20;99.90;;;;;;5055516;28;20435;-64
2022/06/17 05:11:35;;;;;;;11.45;6.20;;;20.30;99.80;;;;;;5055653;28;20099;-65
2022/06/17 05:14:17;;;;;;;10.85;5.93;;;20.40;99.80;;;;;;5055753;28;20028;-66
2022/06/17 05:16:43;;;;;;;10.98;6.15;;;20.40;99.60;;;;;;5054939;28;20063;-64
2022/06/17 05:19:08;;;;;;;12.85;6.45;;;20.50;99.40;;;;;;5055123;28;20053;-64
2022/06/17 05:21:34;;;;;;;11.13;5.38;;;20.70;99.20;;;;;;5054815;28;20048;-65
2022/06/17 05:24:00;;;;;;;10.25;5.95;;;20.90;99.00;;;;;;5055236;28;20473;-65
2022/06/17 05:26:26;;;;;;;12.90;6.00;;;21.00;98.50;;;;;;5055365;28;20024;-68
2022/06/17 05:28:52;;;;;;;11.68;6.07;;;21.10;98.30;;;;;;5055208;28;20029;-63
2022/06/17 05:31:21;;;;;;;13.75;6.10;;;21.30;98.20;;;;;;5053314;28;20037;-66
2022/06/17 05:33:47;;;;;;;9.30;5.22;;;21.50;97.70;;;;;;5054812;28;20029;-64
2022/06/17 05:36:14;;;;;;;13.52;6.47;;;21.60;97.40;;;;;;5055281;28;20025;-64
2022/06/17 05:38:39;;;;;;;13.55;5.63;;;21.60;97.30;;;;;;5054920;28;20032;-64
2022/06/17 05:41:06;;;;;;;11.57;5.90;;;21.70;97.60;;;;;;5055056;28;20028;-67
2022/06/17 05:43:32;;;;;;;9.23;5.40;;;21.70;97.20;;;;;;5055124;28;20107;-65
2022/06/17 05:45:58;;;;;;;14.68;5.40;;;21.80;97.00;;;;;;5054602;28;20053;-67
2022/06/17 05:48:24;;;;;;;11.48;5.47;;;21.80;96.90;;;;;;5054419;28;20107;-65
2022/06/17 05:50:49;;;;;;;11.65;5.68;;;21.80;96.90;;;;;;5054441;28;20443;-67
2022/06/17 05:53:15;;;;;;;12.45;5.50;;;21.90;96.80;;;;;;5055136;28;20036;-63
2022/06/17 05:55:40;;;;;;;10.27;5.43;;;21.80;96.80;;;;;;5054819;28;20036;-65
2022/06/17 05:58:06;;;;;;;10.82;5.30;;;21.90;97.00;;;;;;5054465;28;20047;-64
2022/06/17 06:00:34;;;;;;;9.20;5.38;;;22.00;96.80;;;;;;5054576;28;20036;-67
2022/06/17 06:03:02;;;;;;;13.57;6.05;;;22.10;96.70;;;;;;5054552;28;20025;-64
2022/06/17 06:05:30;;;;;;;11.48;5.45;;;22.20;96.50;;;;;;5054631;28;20473;-67
2022/06/17 06:07:56;;;;;;;10.52;5.70;;;22.30;96.30;;;;;;5054629;28;20020;-64
2022/06/17 06:10:22;;;;;;;11.75;5.68;;;22.30;96.20;;;;;;5055001;28;20025;-63
2022/06/17 06:12:57;;;;;;;10.55;4.95;;;22.30;96.20;;;;;;5054323;28;20044;-63
2022/06/17 06:15:25;;;;;;;13.70;5.68;;;22.30;95.80;;;;;;5054332;28;20439;-64
2022/06/17 06:17:51;;;;;;;9.70;5.80;;;22.10;96.30;;;;;;5054104;28;20017;-64
2022/06/17 06:20:17;;;;;;;14.05;6.25;;;22.10;96.30;;;;;;5054352;28;20093;-64
2022/06/17 06:22:42;;;;;;;12.25;6.00;;;22.20;96.20;;;;;;5054029;28;20458;-66
2022/06/17 06:25:12;;;;;;;12.20;6.50;;;22.20;96.40;;;;;;5054094;28;20022;-62
2022/06/17 06:27:37;;;;;;;12.93;5.88;;;22.30;96.20;;;;;;5053662;28;20032;-63
2022/06/17 06:30:03;;;;;;;14.77;6.18;;;22.50;96.10;;;;;;5053804;28;20454;-65
2022/06/17 06:32:29;;;;;;;10.90;6.38;;;22.60;95.80;;;;;;5053717;28;20045;-64
2022/06/17 06:34:55;;;;;;;13.90;5.97;;;22.80;95.60;;;;;;5054086;28;20024;-68
2022/06/17 06:37:20;;;;;;;11.40;5.68;;;23.00;95.40;;;;;;5054132;28;20431;-64
2022/06/17 06:39:46;;;;;;;12.02;5.40;;;23.20;95.10;;;;;;5052128;28;20025;-63
2022/06/17 06:42:12;;;;;;;10.90;6.00;;;23.50;94.80;;;;;;5053020;28;20021;-63
2022/06/17 06:44:37;;;;;;;9.85;5.72;;;23.70;94.40;;;;;;5053557;28;20013;-63
2022/06/17 06:47:04;;;;;;;12.07;5.75;;;24.00;94.30;;;;;;5053631;28;20415;-64
2022/06/17 06:49:30;;;;;;;10.93;6.40;;;24.30;93.50;;;;;;5053354;28;20497;-65
2022/06/17 06:51:55;;;;;;;9.40;5.43;;;24.40;93.50;;;;;;5053420;28;20021;-65
2022/06/17 06:54:21;;;;;;;11.18;5.80;;;24.60;93.00;;;;;;5053121;28;20020;-65
2022/06/17 06:56:46;;;;;;;11.18;6.03;;;24.40;92.90;;;;;;5053325;28;20028;-64
2022/06/17 06:59:13;;;;;;;15.30;6.07;;;24.40;93.00;;;;;;5053041;28;20078;-63
2022/06/17 07:01:38;;;;;;;10.02;6.07;;;24.50;92.90;;;;;;5053358;28;20447;-68
2022/06/17 07:04:04;;;;;;;12.48;6.25;;;24.60;92.80;;;;;;5053243;28;20017;-66
2022/06/17 07:06:33;;;;;;;10.95;5.85;;;25.00;92.50;;;;;;5053192;28;20021;-66
2022/06/17 07:08:59;;;;;;;11.43;5.78;;;25.80;91.80;;;;;;5052831;28;20028;-68
2022/06/17 07:11:24;;;;;;;12.40;6.68;;;26.40;91.10;;;;;;5052991;28;20407;-69
2022/06/17 07:13:50;;;;;;;11.13;5.43;;;26.70;90.40;;;;;;5053069;28;20466;-64
2022/06/17 07:16:15;;;;;;;13.70;6.03;;;27.20;89.00;;;;;;5053044;28;20107;-65
2022/06/17 07:18:41;;;;;;;11.00;5.80;;;27.30;88.50;;;;;;5052545;28;20021;-65
2022/06/17 07:21:11;;;;;;;10.77;6.00;;;27.40;88.40;;;;;;5053476;28;20029;-63
2022/06/17 07:23:39;;;;;;;12.20;5.82;;;28.00;87.50;;;;;;5053104;28;20124;-66
2022/06/17 07:26:07;;;;;;;13.43;5.93;;;28.90;84.70;;;;;;5052939;28;20028;-65
2022/06/17 07:28:33;;;;;;;10.05;4.80;;;29.40;82.80;;;;;;5053273;28;20529;-64
2022/06/17 07:30:59;;;;;;;14.20;5.43;;;29.40;81.80;;;;;;5052887;28;20166;-66
2022/06/17 07:33:27;;;;;;;9.25;5.32;;;29.20;81.50;;;;;;5052615;28;20020;-66
2022/06/17 07:35:57;;;;;;;12.75;5.50;;;29.70;80.80;;;;;;5053144;28;20109;-65
2022/06/17 07:41:11;;;;;;;9.00;4.82;;;30.20;78.60;;;;;;5052774;28;20032;-66
2022/06/17 07:43:37;;;;;;;9.27;4.63;;;30.50;77.40;;;;;;5052683;28;20051;-65
2022/06/17 07:46:04;;;;;;;10.30;4.97;;;30.70;76.10;;;;;;5052858;28;20021;-68
2022/06/17 07:48:31;;;;;;;8.55;4.40;;;30.60;76.20;;;;;;5052525;28;20391;-65
2022/06/17 07:50:59;;;;;;;9.05;4.80;;;30.70;75.50;;;;;;5052273;28;20500;-64
2022/06/17 07:53:27;;;;;;;8.35;4.22;;;30.50;74.40;;;;;;5051958;28;20457;-65
2022/06/17 07:55:53;;;;;;;11.93;4.65;;;30.10;74.50;;;;;;5052556;28;20040;-65
2022/06/17 07:58:19;;;;;;;8.13;4.05;;;29.90;75.50;;;;;;5052580;28;20111;-64
2022/06/17 08:00:47;;;;;;;9.27;4.32;;;29.70;76.10;;;;;;5052838;28;20076;-64
2022/06/17 08:03:14;;;;;;;7.28;3.72;;;29.50;75.80;;;;;;5052238;28;20100;-67
2022/06/17 08:05:42;;;;;;;8.98;3.95;;;29.20;76.50;;;;;;5052540;28;20033;-67
2022/06/17 08:08:08;;;;;;;9.52;4.00;;;29.00;75.60;;;;;;5052395;28;20083;-64
2022/06/17 08:10:35;;;;;;;7.95;3.58;;;28.90;76.70;;;;;;5051390;28;20017;-68
2022/06/17 08:13:02;;;;;;;9.50;3.58;;;28.90;76.90;;;;;;5052786;28;20029;-65
2022/06/17 08:15:29;;;;;;;7.40;3.50;;;28.70;75.60;;;;;;5051360;28;20435;-66
2022/06/17 08:17:54;;;;;;;8.60;4.10;;;28.60;75.10;;;;;;5052492;28;20017;-64
2022/06/17 08:20:25;;;;;;;7.90;3.58;;;28.60;75.00;;;;;;5052608;28;20409;-64
2022/06/17 08:22:52;;;;;;;5.00;3.50;;;28.50;74.70;;;;;;5052405;28;20020;-65
2022/06/17 08:25:18;;;;;;;8.68;3.63;;;28.50;75.00;;;;;;5052745;28;20025;-67
2022/06/17 08:27:46;;;;;;;8.73;3.85;;;28.90;74.50;;;;;;5051976;28;20096;-66
2022/06/17 08:30:13;;;;;;;8.25;3.42;;;29.50;73.70;;;;;;5052240;28;20033;-64
2022/06/17 08:32:45;;;;;;;7.78;3.58;;;29.80;73.20;;;;;;5052204;28;20041;-64
2022/06/17 08:35:12;;;;;;;9.10;3.88;;;30.20;72.40;;;;;;5052557;28;20024;-64
2022/06/17 08:37:37;;;;;;;6.22;3.67;;;30.70;72.30;;;;;;5052362;28;20467;-64
2022/06/17 08:40:13;;;;;;;7.47;4.47;;;31.30;71.10;;;;;;5052196;28;20036;-65
2022/06/17 08:43:24;;;;;;;9.20;4.20;;;31.40;70.90;;;;;;5051842;28;20017;-68
2022/06/17 08:46:01;;;;;;;6.53;4.18;;;31.20;71.20;;;;;;5049913;28;20119;-63
2022/06/17 08:49:08;;;;;;;6.90;3.70;;;30.90;71.50;;;;;;5052036;28;20028;-64
2022/06/17 08:51:42;;;;;;;9.25;4.20;;;31.00;71.40;;;;;;5037801;28;20075;-65
2022/06/17 08:54:29;;;;;;;5.63;3.67;;;31.90;70.60;;;;;;5052002;28;20459;-64
2022/06/17 08:57:24;;;;;;;7.28;4.03;;;32.90;69.30;;;;;;5050591;28;20421;-67
2022/06/17 08:59:49;;;;;;;8.77;3.75;;;34.20;66.90;;;;;;5050531;28;20056;-68
2022/06/17 09:02:24;;;;;;;9.35;3.53;;;34.90;64.50;;;;;;5051896;28;20021;-68
2022/06/17 09:05:17;;;;;;;6.78;3.22;;;35.20;63.20;;;;;;5053032;28;20095;-66
2022/06/17 09:08:10;;;;;;;11.70;3.65;;;35.30;62.60;;;;;;5055555;28;20079;-65
2022/06/17 09:10:57;;;;;;;8.05;3.60;;;35.40;61.80;;;;;;5055906;28;20074;-67
2022/06/17 09:13:31;;;;;;;5.97;3.30;;;35.80;60.60;;;;;;5055863;28;20013;-64
2022/06/17 09:16:17;;;;;;;6.35;3.05;;;36.30;59.90;;;;;;5055804;28;20104;-63
2022/06/17 09:18:48;;;;;;;8.65;3.17;;;36.60;58.30;;;;;;5055276;28;20029;-65
2022/06/17 09:21:28;;;;;;;7.57;3.33;;;36.20;58.20;;;;;;5055548;28;20017;-66
2022/06/17 09:23:59;;;;;;;7.13;3.38;;;36.50;57.80;;;;;;5056001;28;20024;-67
2022/06/17 09:26:58;;;;;;;8.07;3.77;;;36.30;57.20;;;;;;5053980;28;20025;-65
2022/06/17 09:29:41;;;;;;;9.82;3.53;;;36.00;57.20;;;;;;5055438;28;20036;-66
2022/06/17 09:32:17;;;;;;;7.68;3.10;;;36.20;56.10;;;;;;5055158;28;20048;-66
2022/06/17 09:35:04;;;;;;;5.32;3.28;;;36.20;55.90;;;;;;5055649;28;20057;-66
2022/06/17 09:37:51;;;;;;;6.90;2.80;;;36.50;55.80;;;;;;5055790;28;20029;-64
2022/06/17 09:40:50;;;;;;;15.27;9.70;;;36.50;56.10;;;;;;5055179;28;20422;-66
2022/06/17 09:43:21;;;;;;;6.70;3.10;;;37.10;54.90;;;;;;5055132;28;20075;-69
2022/06/17 09:45:49;;;;;;;;;;;37.50;53.80;;;;;;5055620;28;20017;-68
2022/06/17 09:48:34;;;;;;;3.58;2.63;;;37.40;53.20;;;;;;5054650;28;19909;-65
2022/06/17 09:51:27;;;;;;;7.50;2.67;;;37.40;53.10;;;;;;5055162;28;20104;-66
2022/06/17 09:54:15;;;;;;;4.90;2.47;;;37.30;53.00;;;;;;5054913;28;20040;-66
2022/06/17 09:56:52;;;;;;;5.63;2.72;;;38.00;52.50;;;;;;5055130;28;20104;-65
2022/06/17 09:59:32;;;;;;;8.85;3.15;;;37.90;51.60;;;;;;5054889;28;20017;-65
2022/06/17 10:02:06;;;;;;;7.47;3.28;;;37.90;51.80;;;;;;5054854;28;20021;-65
2022/06/17 10:04:32;;;;;;;6.07;2.50;;;38.10;51.40;;;;;;5055023;28;20028;-65
2022/06/17 10:07:20;;;;;;;6.10;2.95;;;38.50;51.70;;;;;;5054899;28;20028;-68
2022/06/17 10:10:08;;;;;;;7.47;2.90;;;38.50;49.70;;;;;;5054737;28;20111;-63
2022/06/17 10:12:54;;;;;;;10.18;3.08;;;37.90;50.30;;;;;;5054558;28;20021;-65
2022/06/17 10:15:26;;;;;;;3.83;2.42;;;37.40;50.70;;;;;;5054896;28;20490;-65
2022/06/17 10:21:30;;;;;;;10.38;3.13;;;37.60;49.60;;;;;;5054047;28;20518;-67
2022/06/17 10:24:01;;;;;;;10.75;3.30;;;37.20;49.50;;;;;;5026164;28;20041;-64
2022/06/17 10:26:52;;;;;;;6.63;3.08;;;37.00;49.60;;;;;;5032863;28;20091;-64
2022/06/17 10:29:38;;;;;;;8.00;3.30;;;36.70;49.80;;;;;;5033987;28;20100;-67
2022/06/17 10:32:06;;;;;;;7.95;3.45;;;36.50;49.50;;;;;;5041854;28;20056;-65
2022/06/17 10:34:50;;;;;;;5.40;2.78;;;36.40;49.30;;;;;;5053719;28;20017;-67
2022/06/17 10:37:16;;;;;;;5.65;2.95;;;36.30;49.30;;;;;;5069575;28;20031;-65
2022/06/17 10:39:43;;;;;;;6.53;3.03;;;36.00;49.80;;;;;;5072798;28;20020;-67
2022/06/17 10:42:15;;;;;;;5.85;3.13;;;36.00;49.30;;;;;;5054122;28;20124;-66
2022/06/17 10:44:45;;;;;;;6.82;3.03;;;35.80;49.80;;;;;;5053811;28;20032;-63
2022/06/17 10:47:42;;;;;;;6.28;3.35;;;35.90;50.20;;;;;;5053069;28;20410;-64
2022/06/17 10:50:22;;;;;;;7.82;3.03;;;35.80;49.60;;;;;;5070247;28;20119;-67
2022/06/17 10:53:06;;;;;;;8.57;4.03;;;35.50;50.60;;;;;;5073903;28;20025;-65
2022/06/17 10:55:37;;;;;;;7.05;3.45;;;36.00;50.20;;;;;;5074080;28;20031;-65
2022/06/17 10:58:19;;;;;;;6.13;3.20;;;36.60;49.40;;;;;;5074113;28;20025;-64
2022/06/17 11:01:05;;;;;;;5.88;2.90;;;37.10;49.10;;;;;;5073710;28;20024;-65
2022/06/17 11:03:35;;;;;;;11.85;3.20;;;37.20;49.00;;;;;;5073611;28;20028;-65
2022/06/17 11:06:11;;;;;;;6.32;3.63;;;37.50;49.00;;;;;;5066559;28;20104;-65
2022/06/17 11:08:52;;;;;;;6.18;3.25;;;37.90;48.40;;;;;;5051960;28;20024;-65
2022/06/17 11:14:19;;;;;;;9.73;3.45;;;38.30;48.30;;;;;;5053146;28;20052;-67
2022/06/17 11:16:44;;;;;;;8.25;3.28;;;38.50;48.00;;;;;;5053241;28;20032;-64
2022/06/17 11:19:18;;;;;;;10.52;3.72;;;38.60;47.20;;;;;;5052745;28;20033;-64
2022/06/17 11:21:47;;;;;;;9.00;3.10;;;38.20;48.50;;;;;;5053301;28;20025;-66
2022/06/17 11:24:25;;;;;;;7.10;2.97;;;37.90;47.80;;;;;;5053502;28;20045;-65
2022/06/17 11:27:17;;;;;;;8.43;3.45;;;36.80;48.50;;;;;;5052815;28;20425;-65
2022/06/17 11:29:48;;;;;;;6.88;3.35;;;36.30;49.20;;;;;;5052238;28;20124;-64
2022/06/17 11:32:19;;;;;;;8.18;2.83;;;36.30;49.10;;;;;;5053397;28;20046;-64
2022/06/17 11:34:57;;;;;;;11.82;3.50;;;36.50;49.40;;;;;;5052752;28;20056;-68
2022/06/17 11:37:34;;;;;;;7.53;3.40;;;36.20;48.40;;;;;;5053400;28;20109;-66
2022/06/17 11:40:14;;;;;;;10.70;3.40;;;35.70;49.30;;;;;;5051448;28;20013;-65
2022/06/17 11:42:52;;;;;;;7.85;3.60;;;35.30;49.60;;;;;;5052874;28;20479;-64
2022/06/17 11:45:30;;;;;;;6.75;3.15;;;35.00;50.30;;;;;;5053132;28;20025;-65
2022/06/17 11:48:13;;;;;;;8.18;3.42;;;34.90;50.70;;;;;;5053111;28;20025;-65
2022/06/17 11:50:42;;;;;;;5.40;3.03;;;34.70;50.80;;;;;;5052868;28;20021;-66
2022/06/17 11:53:16;;;;;;;8.48;4.13;;;34.60;51.20;;;;;;5052887;28;20052;-66
2022/06/17 11:55:48;;;;;;;8.35;3.47;;;34.60;51.90;;;;;;5053037;28;20021;-66
2022/06/17 11:58:17;;;;;;;10.38;3.60;;;34.90;50.90;;;;;;5052750;28;20025;-65
2022/06/17 12:00:51;;;;;;;10.70;4.05;;;35.00;50.50;;;;;;5052425;28;20134;-68
2022/06/17 12:03:39;;;;;;;5.25;2.85;;;34.80;50.60;;;;;;5052722;28;20205;-65
2022/06/17 12:06:17;;;;;;;10.80;5.65;;;34.80;50.40;;;;;;5052896;28;20025;-65
2022/06/17 12:09:17;;;;;;;5.95;3.15;;;34.80;50.60;;;;;;5052833;28;20021;-65
2022/06/17 12:11:49;;;;;;;9.00;3.28;;;35.40;49.30;;;;;;5032414;28;20102;-64
2022/06/17 12:14:53;;;;;;;6.25;2.80;;;35.50;49.20;;;;;;5052282;28;20041;-65
2022/06/17 12:17:20;;;;;;;9.75;3.40;;;36.20;49.20;;;;;;5052786;28;20519;-65
2022/06/17 12:19:46;;;;;;;7.55;3.50;;;37.00;48.50;;;;;;5052482;28;20060;-68
2022/06/17 12:22:34;;;;;;;6.53;3.10;;;37.50;47.80;;;;;;5051963;28;20056;-65
2022/06/17 12:25:19;;;;;;;8.50;3.13;;;37.80;47.70;;;;;;5052233;28;20032;-68
2022/06/17 12:27:54;;;;;;;7.43;2.78;;;38.40;47.60;;;;;;5051026;28;20375;-67
2022/06/17 12:30:28;;;;;;;5.10;2.47;;;38.60;47.40;;;;;;5052062;28;20032;-64
2022/06/17 12:33:24;;;;;;;6.80;2.58;;;38.30;47.00;;;;;;5050114;28;20044;-64
2022/06/17 12:35:58;;;;;;;6.43;2.85;;;37.30;47.70;;;;;;5049619;28;20052;-66
2022/06/17 12:38:44;;;;;;;6.95;2.90;;;37.00;48.00;;;;;;5051533;28;20021;-65
2022/06/17 12:41:27;;;;;;;5.78;2.67;;;37.00;48.20;;;;;;5055744;28;20016;-65
2022/06/17 12:44:28;;;;;;;10.68;2.78;;;37.10;48.00;;;;;;5054017;28;20112;-66
2022/06/17 12:47:37;;;;;;;4.53;2.72;;;37.30;48.00;;;;;;5049936;28;20419;-66
2022/06/17 12:53:39;;;;;;;8.40;3.05;;;36.70;48.10;;;;;;5052910;28;20059;-65
2022/06/17 12:56:08;;;;;;;5.10;2.60;;;36.30;48.70;;;;;;5054898;28;20020;-65
2022/06/17 12:58:53;;;;;;;8.43;3.15;;;36.10;48.90;;;;;;5051955;28;20021;-69
2022/06/17 13:01:33;;;;;;;4.07;2.45;;;35.80;49.60;;;;;;5051881;28;20016;-64
2022/06/17 13:04:02;;;;;;;7.00;2.70;;;35.40;48.50;;;;;;5052449;28;20025;-67
2022/06/17 13:07:01;;;;;;;3.35;2.30;;;35.30;48.60;;;;;;5054983;28;20405;-64
2022/06/17 13:09:38;;;;;;;6.70;2.50;;;35.20;47.90;;;;;;5076824;28;20108;-68
2022/06/17 13:12:13;;;;;;;5.15;2.80;;;34.90;50.00;;;;;;5076652;28;20022;-65
2022/06/17 13:14:47;;;;;;;6.10;2.50;;;34.40;49.20;;;;;;5055302;28;20009;-69
2022/06/17 13:17:21;;;;;;;6.22;2.58;;;34.20;49.30;;;;;;5055609;28;20025;-65
2022/06/17 13:19:57;;;;;;;4.63;2.75;;;34.10;49.60;;;;;;5049797;28;20017;-65
2022/06/17 13:22:57;;;;;;;6.65;2.80;;;34.00;49.90;;;;;;5052679;28;20025;-63
2022/06/17 13:25:32;;;;;;;7.35;3.20;;;33.90;50.00;;;;;;5055220;28;20017;-65